sensor_id;sensor_type;location;lat;lon;timestamp;P1;durP1;ratioP1;P2;durP2;ratioP2
22040;SDS011;11184;52.444;13.578;2022-12-18T00:01:58;92.45;;;39.10;;
22040;SDS011;11184;52.444;13.578;2022-12-18T00:04:43;92.97;;;41.75;;
22040;SDS011;11184;52.444;13.578;2022-12-18T00:07:27;82.38;;;35.63;;
22040;SDS011;11184;52.444;13.578;2022-12-18T00:10:12;80.70;;;35.38;;
22040;SDS011;11184;52.444;13.578;2022-12-18T00:12:56;83.72;;;36.30;;
22040;SDS011;11184;52.444;13.578;2022-12-18T00:15:41;83.40;;;36.60;;
22040;SDS011;11184;52.444;13.578;2022-12-18T00:18:25;83.22;;;35.45;;
22040;SDS011;11184;52.444;13.578;2022-12-18T00:21:11;73.13;;;31.63;;
22040;SDS011;11184;52.444;13.578;2022-12-18T00:23:56;82.60;;;36.88;;
22040;SDS011;11184;52.444;13.578;2022-12-18T00:26:40;73.15;;;32.22;;
22040;SDS011;11184;52.444;13.578;2022-12-18T00:29:25;77.30;;;35.85;;
22040;SDS011;11184;52.444;13.578;2022-12-18T00:32:10;62.75;;;26.55;;
22040;SDS011;11184;52.444;13.578;2022-12-18T00:34:54;62.60;;;28.77;;
22040;SDS011;11184;52.444;13.578;2022-12-18T00:37:39;68.80;;;29.73;;
22040;SDS011;11184;52.444;13.578;2022-12-18T00:40:23;63.10;;;31.35;;
22040;SDS011;11184;52.444;13.578;2022-12-18T00:43:08;52.78;;;27.05;;
22040;SDS011;11184;52.444;13.578;2022-12-18T00:45:54;63.13;;;29.58;;
22040;SDS011;11184;52.444;13.578;2022-12-18T00:48:38;65.88;;;30.75;;
22040;SDS011;11184;52.444;13.578;2022-12-18T00:51:23;56.13;;;28.30;;
22040;SDS011;11184;52.444;13.578;2022-12-18T00:54:08;50.78;;;28.38;;
22040;SDS011;11184;52.444;13.578;2022-12-18T00:56:53;60.47;;;27.42;;
22040;SDS011;11184;52.444;13.578;2022-12-18T00:59:38;53.13;;;25.88;;
22040;SDS011;11184;52.444;13.578;2022-12-18T01:02:23;53.70;;;27.42;;
22040;SDS011;11184;52.444;13.578;2022-12-18T01:05:08;48.60;;;24.38;;
22040;SDS011;11184;52.444;13.578;2022-12-18T01:07:54;49.28;;;26.23;;
22040;SDS011;11184;52.444;13.578;2022-12-18T01:10:40;59.08;;;26.92;;
22040;SDS011;11184;52.444;13.578;2022-12-18T01:13:25;50.70;;;25.08;;
22040;SDS011;11184;52.444;13.578;2022-12-18T01:16:13;51.05;;;26.60;;
22040;SDS011;11184;52.444;13.578;2022-12-18T01:18:58;38.58;;;20.65;;
22040;SDS011;11184;52.444;13.578;2022-12-18T01:21:43;40.00;;;23.15;;
22040;SDS011;11184;52.444;13.578;2022-12-18T01:24:27;43.35;;;21.98;;
22040;SDS011;11184;52.444;13.578;2022-12-18T01:27:12;45.72;;;23.80;;
22040;SDS011;11184;52.444;13.578;2022-12-18T01:29:57;41.40;;;22.60;;
22040;SDS011;11184;52.444;13.578;2022-12-18T01:32:41;43.13;;;21.92;;
22040;SDS011;11184;52.444;13.578;2022-12-18T01:35:26;44.75;;;22.85;;
22040;SDS011;11184;52.444;13.578;2022-12-18T01:38:10;43.15;;;22.23;;
22040;SDS011;11184;52.444;13.578;2022-12-18T01:40:59;48.03;;;24.38;;
22040;SDS011;11184;52.444;13.578;2022-12-18T01:46:28;47.65;;;22.55;;
22040;SDS011;11184;52.444;13.578;2022-12-18T01:49:13;47.10;;;23.92;;
22040;SDS011;11184;52.444;13.578;2022-12-18T01:51:57;45.72;;;22.77;;
22040;SDS011;11184;52.444;13.578;2022-12-18T01:54:42;47.38;;;24.33;;
22040;SDS011;11184;52.444;13.578;2022-12-18T01:57:27;45.17;;;23.15;;
22040;SDS011;11184;52.444;13.578;2022-12-18T02:00:15;47.70;;;23.20;;
22040;SDS011;11184;52.444;13.578;2022-12-18T02:02:59;45.88;;;23.95;;
22040;SDS011;11184;52.444;13.578;2022-12-18T02:06:27;47.33;;;24.38;;
22040;SDS011;11184;52.444;13.578;2022-12-18T02:09:02;46.17;;;23.60;;
22040;SDS011;11184;52.444;13.578;2022-12-18T02:11:57;47.80;;;23.48;;
22040;SDS011;11184;52.444;13.578;2022-12-18T02:17:36;56.72;;;26.90;;
22040;SDS011;11184;52.444;13.578;2022-12-18T02:20:24;48.88;;;24.52;;
22040;SDS011;11184;52.444;13.578;2022-12-18T02:23:16;51.65;;;24.83;;
22040;SDS011;11184;52.444;13.578;2022-12-18T02:26:21;50.05;;;24.30;;
22040;SDS011;11184;52.444;13.578;2022-12-18T02:32:14;49.85;;;25.80;;
22040;SDS011;11184;52.444;13.578;2022-12-18T02:34:59;54.05;;;26.33;;
22040;SDS011;11184;52.444;13.578;2022-12-18T02:37:46;42.78;;;23.75;;
22040;SDS011;11184;52.444;13.578;2022-12-18T02:40:31;49.17;;;25.73;;
22040;SDS011;11184;52.444;13.578;2022-12-18T02:43:17;40.78;;;24.77;;
22040;SDS011;11184;52.444;13.578;2022-12-18T02:46:20;49.30;;;26.15;;
22040;SDS011;11184;52.444;13.578;2022-12-18T02:49:51;55.22;;;25.48;;
22040;SDS011;11184;52.444;13.578;2022-12-18T02:52:18;55.97;;;25.95;;
22040;SDS011;11184;52.444;13.578;2022-12-18T02:58:15;48.88;;;23.52;;
22040;SDS011;11184;52.444;13.578;2022-12-18T03:01:38;51.95;;;25.50;;
22040;SDS011;11184;52.444;13.578;2022-12-18T03:04:16;54.17;;;26.92;;
22040;SDS011;11184;52.444;13.578;2022-12-18T03:07:04;50.63;;;26.05;;
22040;SDS011;11184;52.444;13.578;2022-12-18T03:09:50;52.30;;;25.58;;
22040;SDS011;11184;52.444;13.578;2022-12-18T03:12:37;47.70;;;24.48;;
22040;SDS011;11184;52.444;13.578;2022-12-18T03:15:28;59.40;;;24.88;;
22040;SDS011;11184;52.444;13.578;2022-12-18T03:18:17;59.03;;;30.38;;
22040;SDS011;11184;52.444;13.578;2022-12-18T03:21:05;47.63;;;25.15;;
22040;SDS011;11184;52.444;13.578;2022-12-18T03:23:50;54.88;;;25.33;;
22040;SDS011;11184;52.444;13.578;2022-12-18T03:26:37;47.35;;;24.40;;
22040;SDS011;11184;52.444;13.578;2022-12-18T03:29:25;42.88;;;23.88;;
22040;SDS011;11184;52.444;13.578;2022-12-18T03:32:11;42.95;;;20.73;;
22040;SDS011;11184;52.444;13.578;2022-12-18T03:34:58;48.03;;;24.35;;
22040;SDS011;11184;52.444;13.578;2022-12-18T03:37:44;39.97;;;21.88;;
22040;SDS011;11184;52.444;13.578;2022-12-18T03:40:31;41.97;;;23.13;;
22040;SDS011;11184;52.444;13.578;2022-12-18T03:43:19;47.47;;;24.58;;
22040;SDS011;11184;52.444;13.578;2022-12-18T03:46:07;47.75;;;23.92;;
22040;SDS011;11184;52.444;13.578;2022-12-18T03:48:56;42.80;;;20.65;;
22040;SDS011;11184;52.444;13.578;2022-12-18T03:51:48;39.92;;;21.63;;
22040;SDS011;11184;52.444;13.578;2022-12-18T03:54:34;47.22;;;23.10;;
22040;SDS011;11184;52.444;13.578;2022-12-18T03:57:21;44.22;;;24.40;;
22040;SDS011;11184;52.444;13.578;2022-12-18T04:00:08;44.53;;;22.10;;
22040;SDS011;11184;52.444;13.578;2022-12-18T04:02:54;45.90;;;23.48;;
22040;SDS011;11184;52.444;13.578;2022-12-18T04:05:40;39.33;;;21.35;;
22040;SDS011;11184;52.444;13.578;2022-12-18T04:08:26;47.17;;;23.65;;
22040;SDS011;11184;52.444;13.578;2022-12-18T04:11:11;43.30;;;25.08;;
22040;SDS011;11184;52.444;13.578;2022-12-18T04:13:56;53.17;;;23.80;;
22040;SDS011;11184;52.444;13.578;2022-12-18T04:16:41;42.55;;;22.50;;
22040;SDS011;11184;52.444;13.578;2022-12-18T04:19:26;45.53;;;21.67;;
22040;SDS011;11184;52.444;13.578;2022-12-18T04:22:11;39.72;;;20.58;;
22040;SDS011;11184;52.444;13.578;2022-12-18T04:24:55;51.28;;;23.80;;
22040;SDS011;11184;52.444;13.578;2022-12-18T04:27:40;49.80;;;23.98;;
22040;SDS011;11184;52.444;13.578;2022-12-18T04:30:24;51.33;;;21.48;;
22040;SDS011;11184;52.444;13.578;2022-12-18T04:33:10;44.75;;;21.30;;
22040;SDS011;11184;52.444;13.578;2022-12-18T04:35:55;47.08;;;23.52;;
22040;SDS011;11184;52.444;13.578;2022-12-18T04:38:40;50.70;;;24.60;;
22040;SDS011;11184;52.444;13.578;2022-12-18T04:41:24;49.65;;;25.08;;
22040;SDS011;11184;52.444;13.578;2022-12-18T04:44:09;45.47;;;24.00;;
22040;SDS011;11184;52.444;13.578;2022-12-18T04:46:53;42.10;;;22.50;;
22040;SDS011;11184;52.444;13.578;2022-12-18T04:49:39;50.00;;;23.70;;
22040;SDS011;11184;52.444;13.578;2022-12-18T04:52:24;43.53;;;23.02;;
22040;SDS011;11184;52.444;13.578;2022-12-18T04:55:09;41.72;;;22.13;;
22040;SDS011;11184;52.444;13.578;2022-12-18T04:57:53;45.88;;;23.42;;
22040;SDS011;11184;52.444;13.578;2022-12-18T05:00:38;45.13;;;21.25;;
22040;SDS011;11184;52.444;13.578;2022-12-18T05:03:23;44.65;;;23.90;;
22040;SDS011;11184;52.444;13.578;2022-12-18T05:06:07;45.58;;;22.30;;
22040;SDS011;11184;52.444;13.578;2022-12-18T05:08:52;47.58;;;23.30;;
22040;SDS011;11184;52.444;13.578;2022-12-18T05:11:36;45.03;;;22.88;;
22040;SDS011;11184;52.444;13.578;2022-12-18T05:14:21;52.38;;;23.85;;
22040;SDS011;11184;52.444;13.578;2022-12-18T05:17:06;47.53;;;24.73;;
22040;SDS011;11184;52.444;13.578;2022-12-18T05:19:51;46.28;;;23.70;;
22040;SDS011;11184;52.444;13.578;2022-12-18T05:22:35;53.35;;;23.52;;
22040;SDS011;11184;52.444;13.578;2022-12-18T05:25:20;50.45;;;25.60;;
22040;SDS011;11184;52.444;13.578;2022-12-18T05:28:05;60.50;;;24.90;;
22040;SDS011;11184;52.444;13.578;2022-12-18T05:30:50;51.50;;;22.35;;
22040;SDS011;11184;52.444;13.578;2022-12-18T05:33:35;50.58;;;22.38;;
22040;SDS011;11184;52.444;13.578;2022-12-18T05:36:20;61.05;;;24.88;;
22040;SDS011;11184;52.444;13.578;2022-12-18T05:39:05;51.33;;;24.13;;
22040;SDS011;11184;52.444;13.578;2022-12-18T05:41:50;58.78;;;27.90;;
22040;SDS011;11184;52.444;13.578;2022-12-18T05:44:34;59.70;;;27.23;;
22040;SDS011;11184;52.444;13.578;2022-12-18T05:47:19;55.95;;;26.10;;
22040;SDS011;11184;52.444;13.578;2022-12-18T05:50:04;65.05;;;27.70;;
22040;SDS011;11184;52.444;13.578;2022-12-18T05:52:49;65.95;;;28.33;;
22040;SDS011;11184;52.444;13.578;2022-12-18T05:55:34;61.92;;;25.95;;
22040;SDS011;11184;52.444;13.578;2022-12-18T05:58:19;62.40;;;26.73;;
22040;SDS011;11184;52.444;13.578;2022-12-18T06:01:11;67.50;;;28.65;;
22040;SDS011;11184;52.444;13.578;2022-12-18T06:03:57;61.70;;;28.85;;
22040;SDS011;11184;52.444;13.578;2022-12-18T06:06:41;61.20;;;27.73;;
22040;SDS011;11184;52.444;13.578;2022-12-18T06:09:26;62.97;;;28.83;;
22040;SDS011;11184;52.444;13.578;2022-12-18T06:12:10;56.38;;;27.58;;
22040;SDS011;11184;52.444;13.578;2022-12-18T06:14:55;58.65;;;28.38;;
22040;SDS011;11184;52.444;13.578;2022-12-18T06:17:40;62.15;;;29.40;;
22040;SDS011;11184;52.444;13.578;2022-12-18T06:20:24;58.25;;;24.90;;
22040;SDS011;11184;52.444;13.578;2022-12-18T06:23:09;60.70;;;27.75;;
22040;SDS011;11184;52.444;13.578;2022-12-18T06:25:54;56.13;;;26.48;;
22040;SDS011;11184;52.444;13.578;2022-12-18T06:28:39;66.18;;;28.77;;
22040;SDS011;11184;52.444;13.578;2022-12-18T06:31:24;59.08;;;27.15;;
22040;SDS011;11184;52.444;13.578;2022-12-18T06:34:09;63.92;;;25.55;;
22040;SDS011;11184;52.444;13.578;2022-12-18T06:36:53;59.75;;;28.15;;
22040;SDS011;11184;52.444;13.578;2022-12-18T06:39:38;53.65;;;26.13;;
22040;SDS011;11184;52.444;13.578;2022-12-18T06:42:24;55.47;;;25.60;;
22040;SDS011;11184;52.444;13.578;2022-12-18T06:45:09;58.03;;;24.73;;
22040;SDS011;11184;52.444;13.578;2022-12-18T06:47:54;51.72;;;26.52;;
22040;SDS011;11184;52.444;13.578;2022-12-18T06:50:41;49.80;;;23.92;;
22040;SDS011;11184;52.444;13.578;2022-12-18T06:53:26;57.10;;;26.65;;
22040;SDS011;11184;52.444;13.578;2022-12-18T06:56:11;49.85;;;24.25;;
22040;SDS011;11184;52.444;13.578;2022-12-18T06:58:56;55.72;;;24.92;;
22040;SDS011;11184;52.444;13.578;2022-12-18T07:01:40;53.00;;;24.13;;
22040;SDS011;11184;52.444;13.578;2022-12-18T07:04:28;49.38;;;25.33;;
22040;SDS011;11184;52.444;13.578;2022-12-18T07:07:14;55.05;;;26.17;;
22040;SDS011;11184;52.444;13.578;2022-12-18T07:09:58;56.15;;;26.88;;
22040;SDS011;11184;52.444;13.578;2022-12-18T07:12:43;57.58;;;27.05;;
22040;SDS011;11184;52.444;13.578;2022-12-18T07:15:27;53.45;;;25.52;;
22040;SDS011;11184;52.444;13.578;2022-12-18T07:18:12;49.03;;;23.75;;
22040;SDS011;11184;52.444;13.578;2022-12-18T07:20:57;47.15;;;23.65;;
22040;SDS011;11184;52.444;13.578;2022-12-18T07:23:41;44.15;;;23.27;;
22040;SDS011;11184;52.444;13.578;2022-12-18T07:26:26;55.15;;;23.98;;
22040;SDS011;11184;52.444;13.578;2022-12-18T07:29:11;42.70;;;24.50;;
22040;SDS011;11184;52.444;13.578;2022-12-18T07:31:55;54.85;;;24.77;;
22040;SDS011;11184;52.444;13.578;2022-12-18T07:34:40;49.08;;;25.15;;
22040;SDS011;11184;52.444;13.578;2022-12-18T07:37:24;44.03;;;23.77;;
22040;SDS011;11184;52.444;13.578;2022-12-18T07:40:09;43.45;;;22.15;;
22040;SDS011;11184;52.444;13.578;2022-12-18T07:42:54;39.80;;;21.92;;
22040;SDS011;11184;52.444;13.578;2022-12-18T07:45:39;36.13;;;20.75;;
22040;SDS011;11184;52.444;13.578;2022-12-18T07:48:23;47.97;;;23.45;;
22040;SDS011;11184;52.444;13.578;2022-12-18T07:51:08;47.08;;;23.98;;
22040;SDS011;11184;52.444;13.578;2022-12-18T07:53:57;44.10;;;22.52;;
22040;SDS011;11184;52.444;13.578;2022-12-18T07:56:41;48.97;;;23.20;;
22040;SDS011;11184;52.444;13.578;2022-12-18T07:59:26;55.20;;;25.52;;
22040;SDS011;11184;52.444;13.578;2022-12-18T08:02:11;45.35;;;22.65;;
22040;SDS011;11184;52.444;13.578;2022-12-18T08:04:55;51.08;;;25.58;;
22040;SDS011;11184;52.444;13.578;2022-12-18T08:07:40;42.15;;;22.83;;
22040;SDS011;11184;52.444;13.578;2022-12-18T08:10:25;34.22;;;21.40;;
22040;SDS011;11184;52.444;13.578;2022-12-18T08:13:10;44.05;;;21.80;;
22040;SDS011;11184;52.444;13.578;2022-12-18T08:15:58;37.22;;;21.10;;
22040;SDS011;11184;52.444;13.578;2022-12-18T08:18:43;46.15;;;23.08;;
22040;SDS011;11184;52.444;13.578;2022-12-18T08:21:29;43.25;;;22.65;;
22040;SDS011;11184;52.444;13.578;2022-12-18T08:24:14;45.28;;;24.50;;
22040;SDS011;11184;52.444;13.578;2022-12-18T08:26:59;50.72;;;22.65;;
22040;SDS011;11184;52.444;13.578;2022-12-18T08:29:43;52.35;;;24.73;;
22040;SDS011;11184;52.444;13.578;2022-12-18T08:32:28;50.38;;;22.65;;
22040;SDS011;11184;52.444;13.578;2022-12-18T08:35:13;45.50;;;22.98;;
22040;SDS011;11184;52.444;13.578;2022-12-18T08:37:58;61.92;;;26.02;;
22040;SDS011;11184;52.444;13.578;2022-12-18T08:40:43;55.53;;;25.20;;
22040;SDS011;11184;52.444;13.578;2022-12-18T08:43:27;51.85;;;22.67;;
22040;SDS011;11184;52.444;13.578;2022-12-18T08:46:33;54.83;;;26.02;;
22040;SDS011;11184;52.444;13.578;2022-12-18T08:49:18;52.05;;;21.27;;
22040;SDS011;11184;52.444;13.578;2022-12-18T08:52:03;52.08;;;23.23;;
22040;SDS011;11184;52.444;13.578;2022-12-18T08:54:48;49.63;;;25.13;;
22040;SDS011;11184;52.444;13.578;2022-12-18T08:57:32;58.20;;;25.45;;
22040;SDS011;11184;52.444;13.578;2022-12-18T09:00:17;50.63;;;23.60;;
22040;SDS011;11184;52.444;13.578;2022-12-18T09:03:01;51.75;;;25.35;;
22040;SDS011;11184;52.444;13.578;2022-12-18T09:05:46;52.80;;;24.08;;
22040;SDS011;11184;52.444;13.578;2022-12-18T09:08:34;47.40;;;24.77;;
22040;SDS011;11184;52.444;13.578;2022-12-18T09:11:21;48.65;;;24.45;;
22040;SDS011;11184;52.444;13.578;2022-12-18T09:14:06;51.78;;;26.15;;
22040;SDS011;11184;52.444;13.578;2022-12-18T09:16:51;52.60;;;24.10;;
22040;SDS011;11184;52.444;13.578;2022-12-18T09:19:36;56.75;;;24.35;;
22040;SDS011;11184;52.444;13.578;2022-12-18T09:22:20;48.83;;;25.05;;
22040;SDS011;11184;52.444;13.578;2022-12-18T09:25:05;55.05;;;25.13;;
22040;SDS011;11184;52.444;13.578;2022-12-18T09:27:51;52.95;;;24.25;;
22040;SDS011;11184;52.444;13.578;2022-12-18T09:30:39;48.08;;;23.80;;
22040;SDS011;11184;52.444;13.578;2022-12-18T09:33:24;50.10;;;24.17;;
22040;SDS011;11184;52.444;13.578;2022-12-18T09:36:09;54.08;;;24.95;;
22040;SDS011;11184;52.444;13.578;2022-12-18T09:38:55;53.42;;;24.98;;
22040;SDS011;11184;52.444;13.578;2022-12-18T09:41:47;47.70;;;24.25;;
22040;SDS011;11184;52.444;13.578;2022-12-18T09:44:41;55.03;;;28.33;;
22040;SDS011;11184;52.444;13.578;2022-12-18T09:47:27;53.63;;;24.52;;
22040;SDS011;11184;52.444;13.578;2022-12-18T09:50:20;54.92;;;28.13;;
22040;SDS011;11184;52.444;13.578;2022-12-18T09:53:11;54.55;;;26.33;;
22040;SDS011;11184;52.444;13.578;2022-12-18T09:55:58;51.90;;;24.65;;
22040;SDS011;11184;52.444;13.578;2022-12-18T09:58:46;54.00;;;26.20;;
22040;SDS011;11184;52.444;13.578;2022-12-18T10:01:31;61.78;;;28.58;;
22040;SDS011;11184;52.444;13.578;2022-12-18T10:04:17;54.95;;;27.05;;
22040;SDS011;11184;52.444;13.578;2022-12-18T10:07:08;57.65;;;26.73;;
22040;SDS011;11184;52.444;13.578;2022-12-18T10:10:01;56.40;;;24.35;;
22040;SDS011;11184;52.444;13.578;2022-12-18T10:12:57;49.20;;;24.92;;
22040;SDS011;11184;52.444;13.578;2022-12-18T10:21:49;51.38;;;26.80;;
22040;SDS011;11184;52.444;13.578;2022-12-18T10:24:43;42.95;;;23.35;;
22040;SDS011;11184;52.444;13.578;2022-12-18T10:27:30;45.20;;;22.95;;
22040;SDS011;11184;52.444;13.578;2022-12-18T10:30:15;55.70;;;24.10;;
22040;SDS011;11184;52.444;13.578;2022-12-18T10:33:01;46.45;;;24.38;;
22040;SDS011;11184;52.444;13.578;2022-12-18T10:35:47;49.20;;;22.55;;
22040;SDS011;11184;52.444;13.578;2022-12-18T10:38:33;48.15;;;24.02;;
22040;SDS011;11184;52.444;13.578;2022-12-18T10:44:11;44.58;;;20.15;;
22040;SDS011;11184;52.444;13.578;2022-12-18T10:47:02;39.95;;;21.42;;
22040;SDS011;11184;52.444;13.578;2022-12-18T10:49:49;46.38;;;22.38;;
22040;SDS011;11184;52.444;13.578;2022-12-18T10:52:34;41.88;;;22.08;;
22040;SDS011;11184;52.444;13.578;2022-12-18T10:55:19;39.15;;;19.58;;
22040;SDS011;11184;52.444;13.578;2022-12-18T10:58:16;41.42;;;20.23;;
22040;SDS011;11184;52.444;13.578;2022-12-18T11:01:03;42.63;;;22.23;;
22040;SDS011;11184;52.444;13.578;2022-12-18T11:06:51;42.45;;;22.17;;
22040;SDS011;11184;52.444;13.578;2022-12-18T11:09:37;40.50;;;21.85;;
22040;SDS011;11184;52.444;13.578;2022-12-18T11:12:22;41.42;;;19.77;;
22040;SDS011;11184;52.444;13.578;2022-12-18T11:15:13;32.22;;;20.10;;
22040;SDS011;11184;52.444;13.578;2022-12-18T11:17:59;32.15;;;19.15;;
22040;SDS011;11184;52.444;13.578;2022-12-18T11:20:44;40.08;;;20.65;;
22040;SDS011;11184;52.444;13.578;2022-12-18T11:23:34;41.55;;;21.33;;
22040;SDS011;11184;52.444;13.578;2022-12-18T11:26:19;39.08;;;20.05;;
22040;SDS011;11184;52.444;13.578;2022-12-18T11:29:09;32.97;;;16.38;;
22040;SDS011;11184;52.444;13.578;2022-12-18T11:32:12;34.72;;;19.90;;
22040;SDS011;11184;52.444;13.578;2022-12-18T11:38:00;33.67;;;18.88;;
22040;SDS011;11184;52.444;13.578;2022-12-18T11:40:47;32.10;;;17.35;;
22040;SDS011;11184;52.444;13.578;2022-12-18T11:43:40;34.03;;;17.20;;
22040;SDS011;11184;52.444;13.578;2022-12-18T11:46:39;31.05;;;18.15;;
22040;SDS011;11184;52.444;13.578;2022-12-18T11:49:34;40.88;;;19.50;;
22040;SDS011;11184;52.444;13.578;2022-12-18T11:52:21;36.22;;;20.20;;
22040;SDS011;11184;52.444;13.578;2022-12-18T11:55:14;33.38;;;19.05;;
22040;SDS011;11184;52.444;13.578;2022-12-18T11:58:03;38.08;;;17.63;;
22040;SDS011;11184;52.444;13.578;2022-12-18T12:00:54;37.03;;;18.23;;
22040;SDS011;11184;52.444;13.578;2022-12-18T12:12:42;30.55;;;18.00;;
22040;SDS011;11184;52.444;13.578;2022-12-18T12:21:20;35.63;;;19.38;;
22040;SDS011;11184;52.444;13.578;2022-12-18T12:24:16;33.40;;;18.75;;
22040;SDS011;11184;52.444;13.578;2022-12-18T12:29:58;34.28;;;18.85;;
22040;SDS011;11184;52.444;13.578;2022-12-18T12:35:43;41.17;;;22.10;;
22040;SDS011;11184;52.444;13.578;2022-12-18T12:38:37;35.17;;;21.17;;
22040;SDS011;11184;52.444;13.578;2022-12-18T12:41:27;35.55;;;20.15;;
22040;SDS011;11184;52.444;13.578;2022-12-18T12:44:35;47.05;;;23.15;;
22040;SDS011;11184;52.444;13.578;2022-12-18T12:47:24;33.90;;;20.25;;
22040;SDS011;11184;52.444;13.578;2022-12-18T12:50:13;35.65;;;20.55;;
22040;SDS011;11184;52.444;13.578;2022-12-18T12:52:59;41.72;;;21.52;;
22040;SDS011;11184;52.444;13.578;2022-12-18T12:55:45;36.08;;;21.15;;
22040;SDS011;11184;52.444;13.578;2022-12-18T12:58:36;32.88;;;19.48;;
22040;SDS011;11184;52.444;13.578;2022-12-18T13:01:39;35.90;;;21.27;;
22040;SDS011;11184;52.444;13.578;2022-12-18T13:04:27;36.47;;;20.83;;
22040;SDS011;11184;52.444;13.578;2022-12-18T13:07:16;44.00;;;23.33;;
22040;SDS011;11184;52.444;13.578;2022-12-18T13:13:05;40.25;;;24.02;;
22040;SDS011;11184;52.444;13.578;2022-12-18T13:16:06;39.40;;;23.75;;
22040;SDS011;11184;52.444;13.578;2022-12-18T13:18:52;41.10;;;23.60;;
22040;SDS011;11184;52.444;13.578;2022-12-18T13:21:37;37.22;;;22.48;;
22040;SDS011;11184;52.444;13.578;2022-12-18T13:24:26;41.85;;;24.40;;
22040;SDS011;11184;52.444;13.578;2022-12-18T13:44:48;36.13;;;23.80;;
22040;SDS011;11184;52.444;13.578;2022-12-18T13:47:34;32.38;;;21.95;;
22040;SDS011;11184;52.444;13.578;2022-12-18T13:50:25;40.17;;;24.05;;
22040;SDS011;11184;52.444;13.578;2022-12-18T13:53:20;36.58;;;25.10;;
22040;SDS011;11184;52.444;13.578;2022-12-18T13:56:05;40.60;;;24.25;;
22040;SDS011;11184;52.444;13.578;2022-12-18T13:59:03;45.17;;;24.40;;
22040;SDS011;11184;52.444;13.578;2022-12-18T14:01:50;34.95;;;21.23;;
22040;SDS011;11184;52.444;13.578;2022-12-18T14:04:36;34.00;;;22.25;;
22040;SDS011;11184;52.444;13.578;2022-12-18T14:07:22;31.13;;;20.15;;
22040;SDS011;11184;52.444;13.578;2022-12-18T14:10:11;36.40;;;21.15;;
22040;SDS011;11184;52.444;13.578;2022-12-18T14:12:57;30.60;;;20.88;;
22040;SDS011;11184;52.444;13.578;2022-12-18T14:15:46;32.58;;;22.75;;
22040;SDS011;11184;52.444;13.578;2022-12-18T14:18:41;32.33;;;21.23;;
22040;SDS011;11184;52.444;13.578;2022-12-18T14:21:27;29.25;;;20.77;;
22040;SDS011;11184;52.444;13.578;2022-12-18T14:27:12;31.10;;;22.65;;
22040;SDS011;11184;52.444;13.578;2022-12-18T14:29:57;31.55;;;22.55;;
22040;SDS011;11184;52.444;13.578;2022-12-18T14:32:42;32.90;;;22.00;;
22040;SDS011;11184;52.444;13.578;2022-12-18T14:35:27;29.33;;;21.75;;
22040;SDS011;11184;52.444;13.578;2022-12-18T14:38:28;31.58;;;21.33;;
22040;SDS011;11184;52.444;13.578;2022-12-18T14:41:15;39.35;;;25.15;;
22040;SDS011;11184;52.444;13.578;2022-12-18T14:44:05;41.03;;;24.35;;
22040;SDS011;11184;52.444;13.578;2022-12-18T14:46:50;34.15;;;23.25;;
22040;SDS011;11184;52.444;13.578;2022-12-18T14:49:35;38.80;;;22.95;;
22040;SDS011;11184;52.444;13.578;2022-12-18T14:52:26;39.63;;;25.98;;
22040;SDS011;11184;52.444;13.578;2022-12-18T14:55:14;39.78;;;22.45;;
22040;SDS011;11184;52.444;13.578;2022-12-18T15:00:35;30.85;;;20.67;;
22040;SDS011;11184;52.444;13.578;2022-12-18T15:03:26;36.80;;;22.15;;
22040;SDS011;11184;52.444;13.578;2022-12-18T15:06:17;31.58;;;20.48;;
22040;SDS011;11184;52.444;13.578;2022-12-18T15:09:04;37.65;;;22.70;;
22040;SDS011;11184;52.444;13.578;2022-12-18T15:11:54;31.10;;;20.65;;
22040;SDS011;11184;52.444;13.578;2022-12-18T15:14:40;34.20;;;21.38;;
22040;SDS011;11184;52.444;13.578;2022-12-18T15:17:25;31.60;;;20.73;;
22040;SDS011;11184;52.444;13.578;2022-12-18T15:20:10;31.48;;;20.98;;
22040;SDS011;11184;52.444;13.578;2022-12-18T15:22:55;31.23;;;20.98;;
22040;SDS011;11184;52.444;13.578;2022-12-18T15:25:39;38.60;;;20.08;;
22040;SDS011;11184;52.444;13.578;2022-12-18T15:28:25;37.58;;;22.45;;
22040;SDS011;11184;52.444;13.578;2022-12-18T15:34:00;29.10;;;19.88;;
22040;SDS011;11184;52.444;13.578;2022-12-18T15:36:46;32.33;;;22.15;;
22040;SDS011;11184;52.444;13.578;2022-12-18T15:39:31;36.03;;;22.75;;
22040;SDS011;11184;52.444;13.578;2022-12-18T15:42:16;31.02;;;20.55;;
22040;SDS011;11184;52.444;13.578;2022-12-18T15:45:19;31.00;;;20.88;;
22040;SDS011;11184;52.444;13.578;2022-12-18T15:48:11;32.20;;;20.95;;
22040;SDS011;11184;52.444;13.578;2022-12-18T15:50:59;30.17;;;21.33;;
22040;SDS011;11184;52.444;13.578;2022-12-18T15:53:44;31.00;;;19.95;;
22040;SDS011;11184;52.444;13.578;2022-12-18T15:56:29;31.95;;;23.85;;
22040;SDS011;11184;52.444;13.578;2022-12-18T15:59:33;43.30;;;22.27;;
22040;SDS011;11184;52.444;13.578;2022-12-18T16:02:18;34.20;;;22.23;;
22040;SDS011;11184;52.444;13.578;2022-12-18T16:05:05;39.40;;;25.33;;
22040;SDS011;11184;52.444;13.578;2022-12-18T16:07:54;38.78;;;25.73;;
22040;SDS011;11184;52.444;13.578;2022-12-18T16:10:38;33.35;;;23.20;;
22040;SDS011;11184;52.444;13.578;2022-12-18T16:13:23;29.67;;;21.15;;
22040;SDS011;11184;52.444;13.578;2022-12-18T16:16:08;42.72;;;25.88;;
22040;SDS011;11184;52.444;13.578;2022-12-18T16:18:52;35.60;;;22.20;;
22040;SDS011;11184;52.444;13.578;2022-12-18T16:21:37;35.03;;;22.00;;
22040;SDS011;11184;52.444;13.578;2022-12-18T16:24:23;30.88;;;21.73;;
22040;SDS011;11184;52.444;13.578;2022-12-18T16:27:08;36.75;;;21.25;;
22040;SDS011;11184;52.444;13.578;2022-12-18T16:29:52;29.50;;;20.52;;
22040;SDS011;11184;52.444;13.578;2022-12-18T16:32:37;28.13;;;20.08;;
22040;SDS011;11184;52.444;13.578;2022-12-18T16:35:24;30.58;;;20.88;;
22040;SDS011;11184;52.444;13.578;2022-12-18T16:38:09;35.30;;;22.67;;
22040;SDS011;11184;52.444;13.578;2022-12-18T16:40:54;30.92;;;19.00;;
22040;SDS011;11184;52.444;13.578;2022-12-18T16:43:58;28.67;;;20.15;;
22040;SDS011;11184;52.444;13.578;2022-12-18T16:46:43;34.42;;;21.20;;
22040;SDS011;11184;52.444;13.578;2022-12-18T16:49:31;35.80;;;21.92;;
22040;SDS011;11184;52.444;13.578;2022-12-18T16:52:15;32.00;;;21.10;;
22040;SDS011;11184;52.444;13.578;2022-12-18T16:55:00;40.83;;;24.30;;
22040;SDS011;11184;52.444;13.578;2022-12-18T16:57:45;29.15;;;21.13;;
22040;SDS011;11184;52.444;13.578;2022-12-18T17:00:30;37.00;;;23.45;;
22040;SDS011;11184;52.444;13.578;2022-12-18T17:03:15;40.45;;;23.92;;
22040;SDS011;11184;52.444;13.578;2022-12-18T17:06:03;34.13;;;22.92;;
22040;SDS011;11184;52.444;13.578;2022-12-18T17:08:53;39.35;;;23.55;;
22040;SDS011;11184;52.444;13.578;2022-12-18T17:11:38;36.67;;;22.65;;
22040;SDS011;11184;52.444;13.578;2022-12-18T17:14:23;39.65;;;25.75;;
22040;SDS011;11184;52.444;13.578;2022-12-18T17:17:08;48.38;;;25.27;;
22040;SDS011;11184;52.444;13.578;2022-12-18T17:19:52;37.88;;;24.48;;